createdAt,value
2018-12-06T00:01:14.886Z,2.70
2018-12-06T00:03:42.502Z,2.66
2018-12-06T00:06:10.095Z,2.69
2018-12-06T00:08:37.707Z,2.61
2018-12-06T00:11:05.295Z,2.59
2018-12-06T00:13:32.832Z,2.66
2018-12-06T00:16:00.440Z,2.66
2018-12-06T00:18:28.053Z,2.68
2018-12-06T00:20:55.928Z,2.62
2018-12-06T00:23:23.502Z,2.67
2018-12-06T00:25:51.175Z,2.62
2018-12-06T00:28:19.095Z,2.61
2018-12-06T00:30:46.692Z,2.69
2018-12-06T00:33:14.297Z,2.63
2018-12-06T00:35:41.910Z,2.64
2018-12-06T00:38:09.453Z,2.66
2018-12-06T00:40:37.048Z,2.74
2018-12-06T00:43:04.643Z,2.73
2018-12-06T00:45:32.556Z,2.69
2018-12-06T00:48:00.395Z,2.68
2018-12-06T00:50:28.002Z,2.72
2018-12-06T00:52:55.545Z,2.73
2018-12-06T00:55:23.279Z,2.69
2018-12-06T00:57:51.165Z,2.70
2018-12-06T01:00:18.867Z,2.72
2018-12-06T01:02:46.426Z,2.71
2018-12-06T01:05:14.052Z,2.71
2018-12-06T01:07:41.595Z,2.72
2018-12-06T01:10:09.315Z,2.69
2018-12-06T01:12:37.060Z,2.71
2018-12-06T01:15:05.253Z,2.71
2018-12-06T01:17:32.894Z,2.76
2018-12-06T01:20:00.498Z,2.82
2018-12-06T01:22:28.091Z,2.72
2018-12-06T01:24:55.677Z,2.71
2018-12-06T01:27:23.297Z,2.75
2018-12-06T01:29:50.841Z,2.74
2018-12-06T01:32:18.439Z,2.84
2018-12-06T01:34:46.122Z,2.81
2018-12-06T01:37:13.694Z,2.78
2018-12-06T01:39:41.266Z,2.80
2018-12-06T01:42:08.829Z,2.81
2018-12-06T01:44:36.432Z,2.82
2018-12-06T01:47:04.060Z,2.75
2018-12-06T01:49:31.858Z,2.73
2018-12-06T01:51:59.459Z,2.72
2018-12-06T01:54:27.026Z,2.83
2018-12-06T01:56:54.606Z,2.83
2018-12-06T01:59:22.231Z,2.83
2018-12-06T02:01:49.859Z,2.84
2018-12-06T02:04:17.441Z,2.84
2018-12-06T02:06:45.304Z,2.89
2018-12-06T02:09:12.887Z,2.85
2018-12-06T02:11:40.649Z,2.86
2018-12-06T02:14:08.317Z,2.86
2018-12-06T02:16:35.912Z,2.82
2018-12-06T02:19:03.452Z,2.96
2018-12-06T02:21:31.008Z,2.89
2018-12-06T02:23:58.589Z,2.89
2018-12-06T02:26:26.182Z,2.93
2018-12-06T02:28:53.744Z,2.97
2018-12-06T02:31:21.320Z,2.98
2018-12-06T02:33:49.205Z,2.95
2018-12-06T02:36:17.043Z,2.98
2018-12-06T02:38:44.688Z,2.96
2018-12-06T02:41:12.279Z,2.96
2018-12-06T02:43:40.152Z,2.94
2018-12-06T02:46:07.767Z,2.86
2018-12-06T02:48:35.416Z,2.86
2018-12-06T02:51:02.989Z,2.89
2018-12-06T02:53:30.915Z,2.91
2018-12-06T02:55:58.468Z,2.94
2018-12-06T02:58:26.054Z,3.00
2018-12-06T03:00:53.631Z,2.98
2018-12-06T03:03:21.189Z,2.95
2018-12-06T03:05:48.763Z,2.95
2018-12-06T03:08:16.361Z,3.03
2018-12-06T03:10:43.914Z,2.97
2018-12-06T03:13:11.553Z,2.98
2018-12-06T03:15:39.095Z,3.04
2018-12-06T03:18:06.763Z,2.97
2018-12-06T03:20:34.405Z,2.94
2018-12-06T03:23:01.999Z,2.97
2018-12-06T03:25:29.568Z,2.93
2018-12-06T03:27:57.178Z,2.90
2018-12-06T03:30:24.743Z,2.95
2018-12-06T03:32:52.387Z,2.92
2018-12-06T03:35:20.281Z,2.94
2018-12-06T03:37:47.851Z,2.88
2018-12-06T03:40:15.390Z,2.91
2018-12-06T03:42:43.015Z,3.00
2018-12-06T03:45:10.785Z,2.96
2018-12-06T03:47:38.368Z,2.98
2018-12-06T03:50:06.053Z,2.95
2018-12-06T03:52:33.919Z,3.02
2018-12-06T03:55:02.191Z,3.07
2018-12-06T03:57:29.750Z,3.05
2018-12-06T03:59:57.311Z,3.04
2018-12-06T04:02:24.926Z,3.09
2018-12-06T04:04:52.527Z,3.03
2018-12-06T04:07:20.388Z,3.05
2018-12-06T04:09:48.275Z,3.08
2018-12-06T04:12:15.881Z,3.08
2018-12-06T04:14:43.428Z,3.17
2018-12-06T04:17:11.049Z,3.08
2018-12-06T04:19:38.625Z,3.12
2018-12-06T04:22:06.188Z,3.07
2018-12-06T04:24:33.760Z,3.12
2018-12-06T04:27:01.387Z,3.17
2018-12-06T04:29:28.986Z,3.15
2018-12-06T04:31:56.580Z,3.18
2018-12-06T04:34:24.159Z,3.21
2018-12-06T04:36:51.794Z,3.21
2018-12-06T04:39:19.387Z,3.22
2018-12-06T04:41:47.133Z,3.31
2018-12-06T04:44:15.137Z,3.26
2018-12-06T04:46:42.755Z,3.29
2018-12-06T04:49:10.360Z,3.34
2018-12-06T04:51:38.976Z,3.39
2018-12-06T04:54:06.568Z,3.36
2018-12-06T04:56:34.151Z,3.34
2018-12-06T04:59:01.725Z,3.37
2018-12-06T05:01:29.294Z,3.35
2018-12-06T05:03:57.000Z,3.39
2018-12-06T05:06:24.935Z,3.39
2018-12-06T05:08:52.555Z,3.38
2018-12-06T05:11:20.167Z,3.43
2018-12-06T05:13:47.777Z,3.41
2018-12-06T05:16:15.334Z,3.41
2018-12-06T05:18:42.925Z,3.50
2018-12-06T05:21:10.548Z,3.47
2018-12-06T05:23:38.235Z,3.54
2018-12-06T05:26:05.854Z,3.56
2018-12-06T05:28:33.523Z,3.56
2018-12-06T05:31:01.156Z,3.58
2018-12-06T05:33:28.798Z,3.57
2018-12-06T05:35:56.353Z,3.59
2018-12-06T05:38:23.934Z,3.60
2018-12-06T05:40:51.830Z,3.60
2018-12-06T05:43:19.470Z,3.61
2018-12-06T05:45:47.113Z,3.60
2018-12-06T05:48:15.188Z,3.60
2018-12-06T05:50:42.785Z,3.62
2018-12-06T05:53:10.406Z,3.62
2018-12-06T05:55:38.074Z,3.75
2018-12-06T05:58:05.712Z,3.73
2018-12-06T06:00:33.448Z,3.77
2018-12-06T06:03:01.062Z,3.75
2018-12-06T06:05:28.653Z,3.76
2018-12-06T06:07:56.282Z,3.71
2018-12-06T06:10:23.844Z,3.77
2018-12-06T06:12:51.453Z,3.75
2018-12-06T06:15:19.025Z,3.89
2018-12-06T06:17:46.621Z,3.84
2018-12-06T06:20:14.201Z,3.88
2018-12-06T06:22:41.915Z,3.88
2018-12-06T06:25:09.582Z,3.86
2018-12-06T06:27:37.193Z,3.95
2018-12-06T06:30:06.218Z,3.87
2018-12-06T06:32:33.791Z,3.89
2018-12-06T06:35:01.437Z,3.96
2018-12-06T06:37:29.114Z,3.92
2018-12-06T06:39:56.707Z,3.94
2018-12-06T06:42:24.327Z,3.96
2018-12-06T06:44:51.881Z,4.00
2018-12-06T06:47:19.482Z,4.00
2018-12-06T06:49:47.046Z,4.05
2018-12-06T06:52:14.642Z,4.03
2018-12-06T06:54:42.522Z,4.00
2018-12-06T06:57:10.316Z,3.99
2018-12-06T06:59:38.250Z,4.01
2018-12-06T07:02:06.187Z,4.04
2018-12-06T07:04:33.826Z,4.01
2018-12-06T07:07:01.436Z,4.07
2018-12-06T07:09:29.029Z,4.03
2018-12-06T07:11:56.754Z,4.01
2018-12-06T07:14:24.339Z,4.13
2018-12-06T07:16:52.049Z,4.08
2018-12-06T07:19:19.643Z,4.08
2018-12-06T07:21:47.311Z,4.00
2018-12-06T07:24:14.932Z,4.07
2018-12-06T07:26:42.522Z,4.06
2018-12-06T07:29:10.186Z,4.08
2018-12-06T07:31:37.807Z,4.14
2018-12-06T07:34:05.388Z,4.10
2018-12-06T07:36:32.982Z,4.11
2018-12-06T07:39:00.626Z,4.14
2018-12-06T07:41:28.202Z,4.21
2018-12-06T07:43:55.804Z,4.21
2018-12-06T07:46:23.388Z,4.20
2018-12-06T07:48:51.005Z,4.21
2018-12-06T07:51:18.570Z,4.19
2018-12-06T07:53:46.529Z,4.11
2018-12-06T07:56:14.131Z,4.18
2018-12-06T07:58:41.733Z,4.16
2018-12-06T08:01:09.688Z,4.28
2018-12-06T08:03:37.338Z,4.24
2018-12-06T08:06:05.091Z,4.16
2018-12-06T08:08:32.679Z,4.27
2018-12-06T08:11:00.293Z,4.30
2018-12-06T08:13:27.934Z,4.26
2018-12-06T08:15:55.512Z,4.27
2018-12-06T08:18:23.106Z,4.41
2018-12-06T08:20:50.654Z,4.38
2018-12-06T08:23:18.315Z,4.34
2018-12-06T08:25:45.939Z,4.40
2018-12-06T08:28:13.589Z,4.51
2018-12-06T08:30:42.132Z,4.49
2018-12-06T08:33:10.274Z,4.41
2018-12-06T08:35:37.942Z,4.47
2018-12-06T08:38:05.721Z,4.51
2018-12-06T08:40:33.369Z,4.52
2018-12-06T08:43:01.007Z,4.49
2018-12-06T08:45:28.665Z,4.54
2018-12-06T08:47:56.235Z,4.60
2018-12-06T08:50:23.818Z,4.60
2018-12-06T08:52:51.461Z,4.59
2018-12-06T08:55:19.053Z,4.61
2018-12-06T08:57:46.646Z,4.71
2018-12-06T09:00:14.218Z,4.76
2018-12-06T09:02:42.041Z,4.77
2018-12-06T09:05:09.662Z,4.71
2018-12-06T09:07:37.223Z,4.76
2018-12-06T09:10:06.215Z,4.71
2018-12-06T09:12:33.848Z,4.84
2018-12-06T09:15:01.562Z,4.86
2018-12-06T09:17:29.121Z,4.88
2018-12-06T09:19:56.703Z,4.94
2018-12-06T09:22:24.524Z,4.87
2018-12-06T09:24:52.295Z,4.85
2018-12-06T09:27:19.902Z,4.85
2018-12-06T09:29:47.487Z,4.85
2018-12-06T09:32:15.092Z,4.84
2018-12-06T09:34:42.690Z,4.87
2018-12-06T09:37:10.291Z,4.85
2018-12-06T09:39:37.893Z,4.85
2018-12-06T09:42:05.553Z,4.87
2018-12-06T09:44:33.142Z,4.94
2018-12-06T09:47:00.975Z,4.95
2018-12-06T09:49:28.605Z,4.95
2018-12-06T09:51:56.536Z,5.04
2018-12-06T09:54:24.102Z,5.09
2018-12-06T09:56:51.735Z,5.04
2018-12-06T09:59:19.308Z,5.07
2018-12-06T10:01:46.940Z,5.10
2018-12-06T10:04:14.715Z,5.13
2018-12-06T10:06:42.343Z,5.18
2018-12-06T10:09:09.900Z,5.19
2018-12-06T10:11:37.477Z,5.24
2018-12-06T10:14:05.052Z,5.18
2018-12-06T10:16:32.682Z,5.23
2018-12-06T10:19:00.401Z,5.24
2018-12-06T10:21:28.006Z,5.28
2018-12-06T10:23:55.564Z,5.31
2018-12-06T10:26:23.162Z,5.24
2018-12-06T10:28:50.735Z,5.24
2018-12-06T10:31:18.448Z,5.26
2018-12-06T10:33:45.992Z,5.26
2018-12-06T10:36:13.614Z,5.20
2018-12-06T10:38:41.202Z,5.22
2018-12-06T10:41:08.803Z,5.20
2018-12-06T10:43:36.406Z,5.22
2018-12-06T10:46:04.174Z,5.25
2018-12-06T10:48:31.768Z,5.25
2018-12-06T10:51:11.337Z,5.29
2018-12-06T10:53:38.971Z,5.28
2018-12-06T10:56:06.575Z,5.31
2018-12-06T10:58:34.127Z,5.37
2018-12-06T11:01:08.457Z,5.45
2018-12-06T11:03:38.346Z,5.50
2018-12-06T11:06:05.969Z,5.52
2018-12-06T11:08:33.526Z,5.60
2018-12-06T11:11:01.102Z,5.64
2018-12-06T11:13:28.675Z,5.71
2018-12-06T11:15:56.314Z,5.78
2018-12-06T11:18:24.196Z,5.81
2018-12-06T11:21:18.941Z,5.88
2018-12-06T11:23:47.726Z,5.92
2018-12-06T11:26:15.465Z,5.89
2018-12-06T11:28:43.018Z,5.93
2018-12-06T11:31:10.867Z,5.95
2018-12-06T11:33:38.426Z,6.00
2018-12-06T11:36:05.998Z,5.91
2018-12-06T11:38:33.660Z,5.88
2018-12-06T11:41:01.313Z,5.90
2018-12-06T11:43:28.976Z,5.86
2018-12-06T11:45:56.892Z,5.89
2018-12-06T11:48:27.016Z,5.89
2018-12-06T11:50:54.217Z,5.87
2018-12-06T11:53:22.072Z,5.93
2018-12-06T11:55:49.659Z,6.00
2018-12-06T11:58:17.243Z,6.04
2018-12-06T12:00:44.867Z,6.08
2018-12-06T12:03:12.427Z,6.13
2018-12-06T12:05:40.068Z,6.14
2018-12-06T12:08:07.664Z,6.21
2018-12-06T12:10:35.624Z,6.20
2018-12-06T12:13:03.273Z,6.19
2018-12-06T12:15:31.369Z,6.22
2018-12-06T12:17:59.016Z,6.18
2018-12-06T12:20:26.699Z,6.16
2018-12-06T12:22:54.448Z,6.25
2018-12-06T12:25:22.040Z,6.22
2018-12-06T12:27:49.588Z,6.34
2018-12-06T12:30:17.180Z,6.28
2018-12-06T12:32:44.794Z,6.28
2018-12-06T12:35:12.372Z,6.28
2018-12-06T12:37:39.929Z,6.29
2018-12-06T12:40:09.415Z,6.27
2018-12-06T12:42:37.295Z,6.27
2018-12-06T12:45:06.226Z,6.27
2018-12-06T12:47:34.059Z,6.26
2018-12-06T12:50:01.698Z,6.27
2018-12-06T12:52:29.350Z,6.18
2018-12-06T12:54:56.938Z,6.21
2018-12-06T12:57:24.504Z,6.17
2018-12-06T12:59:52.141Z,6.22
2018-12-06T13:02:19.730Z,6.24
2018-12-06T13:04:47.374Z,6.39
2018-12-06T13:07:15.052Z,6.34
2018-12-06T13:09:42.695Z,6.31
2018-12-06T13:12:10.379Z,6.28
2018-12-06T13:14:37.998Z,6.31
2018-12-06T13:17:05.611Z,6.31
2018-12-06T13:19:33.192Z,6.32
2018-12-06T13:22:00.993Z,6.30
2018-12-06T13:24:28.599Z,6.36
2018-12-06T13:26:56.250Z,6.41
2018-12-06T13:29:23.888Z,6.38
2018-12-06T13:31:51.456Z,6.37
2018-12-06T13:34:19.042Z,6.35
2018-12-06T13:36:46.632Z,6.34
2018-12-06T13:39:14.219Z,6.37
2018-12-06T13:41:41.799Z,6.39
2018-12-06T13:44:09.444Z,6.38
2018-12-06T13:46:37.569Z,6.37
2018-12-06T13:49:05.167Z,6.37
2018-12-06T13:51:33.286Z,6.40
2018-12-06T13:54:01.059Z,6.40
2018-12-06T13:56:28.668Z,6.37
2018-12-06T13:58:56.260Z,6.35
2018-12-06T14:01:24.004Z,6.39
2018-12-06T14:03:51.868Z,6.41
2018-12-06T14:06:19.467Z,6.41
2018-12-06T14:08:47.055Z,6.45
2018-12-06T14:11:15.009Z,6.45
2018-12-06T14:13:42.579Z,6.45
2018-12-06T14:16:10.565Z,6.45
2018-12-06T14:18:38.921Z,6.44
2018-12-06T14:21:06.521Z,6.48
2018-12-06T14:23:34.146Z,6.47
2018-12-06T14:26:01.827Z,6.50
2018-12-06T14:28:29.417Z,6.46
2018-12-06T14:30:57.076Z,6.47
2018-12-06T14:33:24.695Z,6.46
2018-12-06T14:35:52.401Z,6.42
2018-12-06T14:38:20.176Z,6.47
2018-12-06T14:40:47.760Z,6.51
2018-12-06T14:43:15.657Z,6.54
2018-12-06T14:45:43.440Z,6.60
2018-12-06T14:48:11.277Z,6.58
2018-12-06T14:50:38.871Z,6.59
2018-12-06T14:53:06.451Z,6.60
2018-12-06T14:55:34.586Z,6.61
2018-12-06T14:58:02.182Z,6.61
2018-12-06T15:00:29.827Z,6.61
2018-12-06T15:02:57.593Z,6.61
2018-12-06T15:05:25.168Z,6.62
2018-12-06T15:07:52.909Z,6.65
2018-12-06T15:10:20.467Z,6.65
2018-12-06T15:12:48.043Z,6.68
2018-12-06T15:15:15.643Z,6.72
2018-12-06T15:17:43.217Z,6.69
2018-12-06T15:20:10.772Z,6.71
2018-12-06T15:22:38.401Z,6.66
2018-12-06T15:25:06.628Z,6.66
2018-12-06T15:27:34.815Z,6.65
2018-12-06T15:30:02.430Z,6.61
2018-12-06T15:32:30.051Z,6.66
2018-12-06T15:34:57.689Z,6.62
2018-12-06T15:37:25.242Z,6.59
2018-12-06T15:39:52.847Z,6.56
2018-12-06T15:42:20.498Z,6.49
2018-12-06T15:44:48.091Z,6.46
2018-12-06T15:47:15.731Z,6.46
2018-12-06T15:49:43.364Z,6.44
2018-12-06T15:52:11.028Z,6.42
2018-12-06T15:54:38.920Z,6.39
2018-12-06T15:57:06.516Z,6.40
2018-12-06T15:59:34.157Z,6.35
2018-12-06T16:02:01.763Z,6.36
2018-12-06T16:04:29.449Z,6.36
2018-12-06T16:06:57.031Z,6.31
2018-12-06T16:09:24.687Z,6.32
2018-12-06T16:11:52.306Z,6.32
2018-12-06T16:14:19.888Z,6.33
2018-12-06T16:16:47.607Z,6.30
2018-12-06T16:19:15.417Z,6.33
2018-12-06T16:21:43.060Z,6.30
2018-12-06T16:24:10.873Z,6.27
2018-12-06T16:26:38.502Z,6.28
2018-12-06T16:29:06.115Z,6.28
2018-12-06T16:31:33.755Z,6.28
2018-12-06T16:34:01.420Z,6.30
2018-12-06T16:36:29.048Z,6.31
2018-12-06T16:38:57.066Z,6.32
2018-12-06T16:41:24.664Z,6.32
2018-12-06T16:43:52.399Z,6.35
2018-12-06T16:46:20.054Z,6.42
2018-12-06T16:48:47.713Z,6.39
2018-12-06T16:51:15.354Z,6.37
2018-12-06T16:53:43.031Z,6.40
2018-12-06T16:56:10.616Z,6.41
2018-12-06T16:58:38.214Z,6.44
2018-12-06T17:01:05.828Z,6.49
2018-12-06T17:03:33.486Z,6.50
2018-12-06T17:06:01.350Z,6.56
2018-12-06T17:08:29.237Z,6.59
2018-12-06T17:10:56.862Z,6.61
2018-12-06T17:13:24.423Z,6.59
2018-12-06T17:15:52.042Z,6.60
2018-12-06T17:18:19.631Z,6.60
2018-12-06T17:20:47.279Z,6.62
2018-12-06T17:23:14.902Z,6.64
2018-12-06T17:25:42.519Z,6.66
2018-12-06T17:28:10.100Z,6.67
2018-12-06T17:30:37.801Z,6.71
2018-12-06T17:33:05.468Z,6.70
2018-12-06T17:35:33.185Z,6.72
2018-12-06T17:38:00.795Z,6.75
2018-12-06T17:40:28.347Z,6.75
2018-12-06T17:42:55.972Z,6.75
2018-12-06T17:45:23.712Z,6.78
2018-12-06T17:47:51.633Z,6.80
2018-12-06T17:50:19.269Z,6.83
2018-12-06T17:52:46.921Z,6.88
2018-12-06T17:55:14.618Z,6.89
2018-12-06T17:57:42.306Z,6.91
2018-12-06T18:00:11.992Z,6.90
2018-12-06T18:02:39.615Z,6.94
2018-12-06T18:05:07.306Z,6.95
2018-12-06T18:07:34.901Z,7.00
2018-12-06T18:10:02.637Z,7.00
2018-12-06T18:12:30.683Z,7.04
2018-12-06T18:14:59.010Z,7.04
2018-12-06T18:17:26.667Z,7.06
2018-12-06T18:19:54.381Z,7.07
2018-12-06T18:22:22.296Z,7.07
2018-12-06T18:24:50.124Z,7.08
2018-12-06T18:27:17.813Z,7.11
2018-12-06T18:29:45.496Z,7.13
2018-12-06T18:32:13.188Z,7.15
2018-12-06T18:34:41.450Z,7.17
2018-12-06T18:37:09.262Z,7.19
2018-12-06T18:39:36.882Z,7.22
2018-12-06T18:42:04.745Z,7.24
2018-12-06T18:44:32.557Z,7.24
2018-12-06T18:47:00.247Z,7.26
2018-12-06T18:49:27.952Z,7.28
2018-12-06T18:51:55.840Z,7.32
2018-12-06T18:54:23.783Z,7.34
2018-12-06T18:56:51.462Z,7.35
2018-12-06T18:59:19.078Z,7.40
2018-12-06T19:01:46.829Z,7.41
2018-12-06T19:04:14.884Z,7.43
2018-12-06T19:06:42.738Z,7.45
2018-12-06T19:09:10.551Z,7.47
2018-12-06T19:11:38.208Z,7.50
2018-12-06T19:14:05.851Z,7.51
2018-12-06T19:16:33.697Z,7.52
2018-12-06T19:19:01.605Z,7.51
2018-12-06T19:21:29.322Z,7.58
2018-12-06T19:23:56.999Z,7.59
2018-12-06T19:26:24.573Z,7.58
2018-12-06T19:28:52.215Z,7.57
2018-12-06T19:31:19.759Z,7.62
2018-12-06T19:33:47.336Z,7.62
2018-12-06T19:36:15.029Z,7.66
2018-12-06T19:38:43.015Z,7.67
2018-12-06T19:41:10.654Z,7.66
2018-12-06T19:43:38.379Z,7.70
2018-12-06T19:46:06.014Z,7.71
2018-12-06T19:48:33.613Z,7.72
2018-12-06T19:51:01.458Z,7.73
2018-12-06T19:53:29.143Z,7.78
2018-12-06T19:55:56.757Z,7.79
2018-12-06T19:58:24.376Z,7.81
2018-12-06T20:00:52.404Z,7.79
2018-12-06T20:03:20.114Z,7.82
2018-12-06T20:05:47.755Z,7.83
2018-12-06T20:08:15.393Z,7.83
2018-12-06T20:10:42.993Z,7.82
2018-12-06T20:13:10.821Z,7.85
2018-12-06T20:15:38.574Z,7.86
2018-12-06T20:18:06.192Z,7.87
2018-12-06T20:20:34.040Z,7.90
2018-12-06T20:23:01.772Z,7.91
2018-12-06T20:25:29.366Z,7.92
2018-12-06T20:27:57.073Z,7.93
2018-12-06T20:30:24.704Z,7.96
2018-12-06T20:32:52.311Z,7.95
2018-12-06T20:35:20.333Z,7.99
2018-12-06T20:37:47.992Z,8.01
2018-12-06T20:40:15.700Z,8.06
2018-12-06T20:42:43.293Z,8.05
2018-12-06T20:45:10.879Z,8.06
2018-12-06T20:47:38.664Z,8.07
2018-12-06T20:50:06.385Z,8.05
2018-12-06T20:52:34.045Z,8.05
2018-12-06T20:55:01.611Z,8.04
2018-12-06T20:57:36.782Z,8.05
2018-12-06T20:59:58.946Z,8.07
2018-12-06T21:02:27.154Z,8.07
2018-12-06T21:04:54.921Z,8.07
2018-12-06T21:07:22.507Z,8.07
2018-12-06T21:09:50.394Z,8.07
2018-12-06T21:12:18.045Z,8.08
2018-12-06T21:14:45.681Z,8.06
2018-12-06T21:17:13.311Z,8.05
2018-12-06T21:19:40.873Z,8.04
2018-12-06T21:22:08.503Z,8.05
2018-12-06T21:24:36.130Z,8.06
2018-12-06T21:27:03.758Z,8.06
2018-12-06T21:29:31.586Z,8.07
2018-12-06T21:31:59.180Z,8.10
2018-12-06T21:34:26.764Z,8.12
2018-12-06T21:36:54.330Z,8.15
2018-12-06T21:39:22.035Z,8.14
2018-12-06T21:41:49.634Z,8.18
2018-12-06T21:44:17.277Z,8.18
2018-12-06T21:46:44.996Z,8.17
2018-12-06T21:49:12.705Z,8.18
2018-12-06T21:51:40.381Z,8.19
2018-12-06T21:54:08.273Z,8.21
2018-12-06T21:56:36.047Z,8.23
2018-12-06T21:59:03.628Z,8.24
2018-12-06T22:01:31.249Z,8.22
2018-12-06T22:03:59.032Z,8.24
2018-12-06T22:06:26.944Z,8.23
2018-12-06T22:08:54.893Z,8.24
2018-12-06T22:11:22.803Z,8.27
2018-12-06T22:13:50.590Z,8.26
2018-12-06T22:16:18.319Z,8.27
2018-12-06T22:18:46.159Z,8.30
2018-12-06T22:21:14.001Z,8.31
2018-12-06T22:23:41.637Z,8.29
2018-12-06T22:26:09.222Z,8.34
2018-12-06T22:28:36.854Z,8.40
2018-12-06T22:31:05.015Z,8.38
2018-12-06T22:33:33.055Z,8.38
2018-12-06T22:36:00.897Z,8.39
2018-12-06T22:38:34.105Z,8.40
2018-12-06T22:40:58.218Z,8.44
2018-12-06T22:43:25.760Z,8.47
2018-12-06T22:45:55.104Z,8.47
2018-12-06T22:48:23.324Z,8.46
2018-12-06T22:50:50.977Z,8.47
2018-12-06T22:53:18.575Z,8.48
2018-12-06T22:55:46.170Z,8.54
2018-12-06T22:58:13.723Z,8.54
2018-12-06T23:00:43.599Z,8.56
2018-12-06T23:03:11.293Z,8.61
2018-12-06T23:05:38.918Z,8.59
2018-12-06T23:08:06.978Z,8.61
2018-12-06T23:10:35.683Z,8.62
2018-12-06T23:13:03.397Z,8.64
2018-12-06T23:15:31.010Z,8.72
2018-12-06T23:17:58.957Z,8.71
2018-12-06T23:20:26.818Z,8.72
2018-12-06T23:22:54.405Z,8.77
2018-12-06T23:25:22.253Z,8.77
2018-12-06T23:27:49.833Z,8.78
2018-12-06T23:30:17.420Z,8.78
2018-12-06T23:32:45.037Z,8.79
2018-12-06T23:35:13.222Z,8.84
2018-12-06T23:37:40.830Z,8.84
2018-12-06T23:40:08.439Z,8.86
2018-12-06T23:42:36.077Z,8.89
2018-12-06T23:45:04.596Z,8.91
2018-12-06T23:47:32.187Z,8.95
2018-12-06T23:49:59.735Z,8.92
2018-12-06T23:52:27.477Z,8.93
2018-12-06T23:54:55.123Z,9.01
2018-12-06T23:57:22.704Z,9.02
2018-12-06T23:59:50.566Z,9.03
